sensor_id;sensor_type;location;lat;lon;timestamp;P1;durP1;ratioP1;P2;durP2;ratioP2
5841;SDS011;2947;52.276;9.946;2023-03-01T00:01:47;10.70;;;5.80;;
5841;SDS011;2947;52.276;9.946;2023-03-01T00:04:13;13.07;;;6.00;;
5841;SDS011;2947;52.276;9.946;2023-03-01T00:06:39;13.27;;;5.40;;
5841;SDS011;2947;52.276;9.946;2023-03-01T00:09:05;11.63;;;5.57;;
5841;SDS011;2947;52.276;9.946;2023-03-01T00:11:31;10.13;;;5.70;;
5841;SDS011;2947;52.276;9.946;2023-03-01T00:13:59;13.37;;;5.80;;
5841;SDS011;2947;52.276;9.946;2023-03-01T00:18:55;13.00;;;5.73;;
5841;SDS011;2947;52.276;9.946;2023-03-01T00:21:22;16.47;;;6.33;;
5841;SDS011;2947;52.276;9.946;2023-03-01T00:23:48;13.57;;;6.53;;
5841;SDS011;2947;52.276;9.946;2023-03-01T00:26:15;13.17;;;6.27;;
5841;SDS011;2947;52.276;9.946;2023-03-01T00:28:42;11.87;;;6.43;;
5841;SDS011;2947;52.276;9.946;2023-03-01T00:31:09;16.40;;;6.80;;
5841;SDS011;2947;52.276;9.946;2023-03-01T00:33:39;15.63;;;6.17;;
5841;SDS011;2947;52.276;9.946;2023-03-01T00:36:06;13.00;;;6.20;;
5841;SDS011;2947;52.276;9.946;2023-03-01T00:38:37;10.47;;;6.20;;
5841;SDS011;2947;52.276;9.946;2023-03-01T00:41:09;11.83;;;6.00;;
5841;SDS011;2947;52.276;9.946;2023-03-01T00:43:38;10.70;;;5.83;;
5841;SDS011;2947;52.276;9.946;2023-03-01T00:46:04;16.53;;;6.00;;
5841;SDS011;2947;52.276;9.946;2023-03-01T00:48:36;14.20;;;6.57;;
5841;SDS011;2947;52.276;9.946;2023-03-01T00:51:09;16.63;;;7.60;;
5841;SDS011;2947;52.276;9.946;2023-03-01T00:53:44;14.43;;;6.43;;
5841;SDS011;2947;52.276;9.946;2023-03-01T00:56:11;14.20;;;7.40;;
5841;SDS011;2947;52.276;9.946;2023-03-01T00:58:39;16.00;;;6.33;;
5841;SDS011;2947;52.276;9.946;2023-03-01T01:01:25;9.60;;;5.83;;
5841;SDS011;2947;52.276;9.946;2023-03-01T01:03:57;16.03;;;6.60;;
5841;SDS011;2947;52.276;9.946;2023-03-01T01:08:55;18.47;;;8.77;;
5841;SDS011;2947;52.276;9.946;2023-03-01T01:11:22;18.67;;;7.67;;
5841;SDS011;2947;52.276;9.946;2023-03-01T01:13:50;18.67;;;8.27;;
5841;SDS011;2947;52.276;9.946;2023-03-01T01:16:16;16.60;;;7.83;;
5841;SDS011;2947;52.276;9.946;2023-03-01T01:18:44;16.77;;;6.60;;
5841;SDS011;2947;52.276;9.946;2023-03-01T01:21:11;14.70;;;7.00;;
5841;SDS011;2947;52.276;9.946;2023-03-01T01:23:40;15.90;;;7.70;;
5841;SDS011;2947;52.276;9.946;2023-03-01T01:26:07;13.27;;;7.20;;
5841;SDS011;2947;52.276;9.946;2023-03-01T01:28:39;20.10;;;6.90;;
5841;SDS011;2947;52.276;9.946;2023-03-01T01:31:04;22.47;;;6.77;;
5841;SDS011;2947;52.276;9.946;2023-03-01T01:33:31;13.27;;;6.60;;
5841;SDS011;2947;52.276;9.946;2023-03-01T01:35:56;11.20;;;6.23;;
5841;SDS011;2947;52.276;9.946;2023-03-01T01:38:22;16.50;;;7.20;;
5841;SDS011;2947;52.276;9.946;2023-03-01T01:40:49;20.03;;;7.60;;
5841;SDS011;2947;52.276;9.946;2023-03-01T01:45:55;13.20;;;6.00;;
5841;SDS011;2947;52.276;9.946;2023-03-01T01:48:26;14.30;;;5.47;;
5841;SDS011;2947;52.276;9.946;2023-03-01T01:51:06;12.73;;;5.63;;
5841;SDS011;2947;52.276;9.946;2023-03-01T01:53:37;15.60;;;5.90;;
5841;SDS011;2947;52.276;9.946;2023-03-01T01:56:05;12.00;;;6.13;;
5841;SDS011;2947;52.276;9.946;2023-03-01T01:58:33;10.57;;;5.13;;
5841;SDS011;2947;52.276;9.946;2023-03-01T02:00:59;13.67;;;5.70;;
5841;SDS011;2947;52.276;9.946;2023-03-01T02:03:27;13.47;;;5.93;;
5841;SDS011;2947;52.276;9.946;2023-03-01T02:08:53;12.63;;;5.90;;
5841;SDS011;2947;52.276;9.946;2023-03-01T02:11:24;17.03;;;6.70;;
5841;SDS011;2947;52.276;9.946;2023-03-01T02:13:51;14.90;;;5.73;;
5841;SDS011;2947;52.276;9.946;2023-03-01T02:16:19;11.80;;;6.07;;
5841;SDS011;2947;52.276;9.946;2023-03-01T02:18:45;14.57;;;7.23;;
5841;SDS011;2947;52.276;9.946;2023-03-01T02:24:27;12.13;;;6.23;;
5841;SDS011;2947;52.276;9.946;2023-03-01T02:27:03;8.83;;;5.70;;
5841;SDS011;2947;52.276;9.946;2023-03-01T02:29:29;18.53;;;6.30;;
5841;SDS011;2947;52.276;9.946;2023-03-01T02:31:55;10.70;;;6.50;;
5841;SDS011;2947;52.276;9.946;2023-03-01T02:34:24;11.37;;;5.83;;
5841;SDS011;2947;52.276;9.946;2023-03-01T02:36:56;11.80;;;5.93;;
5841;SDS011;2947;52.276;9.946;2023-03-01T02:39:30;13.23;;;6.20;;
5841;SDS011;2947;52.276;9.946;2023-03-01T02:42:13;13.83;;;6.37;;
5841;SDS011;2947;52.276;9.946;2023-03-01T02:44:45;13.70;;;6.33;;
5841;SDS011;2947;52.276;9.946;2023-03-01T02:47:11;12.40;;;6.27;;
5841;SDS011;2947;52.276;9.946;2023-03-01T02:49:37;13.70;;;6.93;;
5841;SDS011;2947;52.276;9.946;2023-03-01T02:52:16;13.07;;;6.27;;
5841;SDS011;2947;52.276;9.946;2023-03-01T02:57:34;16.37;;;8.13;;
5841;SDS011;2947;52.276;9.946;2023-03-01T03:00:06;12.90;;;6.50;;
5841;SDS011;2947;52.276;9.946;2023-03-01T03:02:46;14.97;;;6.63;;
5841;SDS011;2947;52.276;9.946;2023-03-01T03:05:24;15.37;;;7.07;;
5841;SDS011;2947;52.276;9.946;2023-03-01T03:07:55;10.53;;;5.80;;
5841;SDS011;2947;52.276;9.946;2023-03-01T03:10:36;14.40;;;7.47;;
5841;SDS011;2947;52.276;9.946;2023-03-01T03:13:12;13.20;;;7.10;;
5841;SDS011;2947;52.276;9.946;2023-03-01T03:15:40;13.00;;;6.17;;
5841;SDS011;2947;52.276;9.946;2023-03-01T03:18:09;13.43;;;6.47;;
5841;SDS011;2947;52.276;9.946;2023-03-01T03:20:38;12.50;;;6.80;;
5841;SDS011;2947;52.276;9.946;2023-03-01T03:23:06;12.33;;;6.97;;
5841;SDS011;2947;52.276;9.946;2023-03-01T03:25:32;14.00;;;6.60;;
5841;SDS011;2947;52.276;9.946;2023-03-01T03:27:57;13.80;;;6.20;;
5841;SDS011;2947;52.276;9.946;2023-03-01T03:30:25;11.03;;;6.27;;
5841;SDS011;2947;52.276;9.946;2023-03-01T03:32:54;11.80;;;6.80;;
5841;SDS011;2947;52.276;9.946;2023-03-01T03:35:22;10.80;;;6.00;;
5841;SDS011;2947;52.276;9.946;2023-03-01T03:37:58;14.67;;;6.70;;
5841;SDS011;2947;52.276;9.946;2023-03-01T03:40:30;14.53;;;6.07;;
5841;SDS011;2947;52.276;9.946;2023-03-01T03:43:11;16.27;;;6.67;;
5841;SDS011;2947;52.276;9.946;2023-03-01T03:45:40;11.97;;;5.70;;
5841;SDS011;2947;52.276;9.946;2023-03-01T03:48:09;11.30;;;5.87;;
5841;SDS011;2947;52.276;9.946;2023-03-01T03:50:35;13.00;;;6.40;;
5841;SDS011;2947;52.276;9.946;2023-03-01T03:53:04;10.93;;;6.30;;
5841;SDS011;2947;52.276;9.946;2023-03-01T03:55:36;12.70;;;6.87;;
5841;SDS011;2947;52.276;9.946;2023-03-01T03:58:04;11.47;;;6.77;;
5841;SDS011;2947;52.276;9.946;2023-03-01T04:00:33;15.07;;;6.70;;
5841;SDS011;2947;52.276;9.946;2023-03-01T04:03:01;12.27;;;6.40;;
5841;SDS011;2947;52.276;9.946;2023-03-01T04:05:27;13.53;;;6.80;;
5841;SDS011;2947;52.276;9.946;2023-03-01T04:07:53;17.13;;;6.90;;
5841;SDS011;2947;52.276;9.946;2023-03-01T04:10:26;13.53;;;7.50;;
5841;SDS011;2947;52.276;9.946;2023-03-01T04:12:57;16.00;;;6.80;;
5841;SDS011;2947;52.276;9.946;2023-03-01T04:15:23;15.83;;;8.83;;
5841;SDS011;2947;52.276;9.946;2023-03-01T04:17:51;13.60;;;7.40;;
5841;SDS011;2947;52.276;9.946;2023-03-01T04:20:20;11.60;;;7.10;;
5841;SDS011;2947;52.276;9.946;2023-03-01T04:22:57;16.63;;;7.57;;
5841;SDS011;2947;52.276;9.946;2023-03-01T04:25:38;12.20;;;6.43;;
5841;SDS011;2947;52.276;9.946;2023-03-01T04:28:11;13.90;;;6.57;;
5841;SDS011;2947;52.276;9.946;2023-03-01T04:30:38;15.40;;;7.87;;
5841;SDS011;2947;52.276;9.946;2023-03-01T04:33:07;13.43;;;7.67;;
5841;SDS011;2947;52.276;9.946;2023-03-01T04:35:35;15.77;;;7.80;;
5841;SDS011;2947;52.276;9.946;2023-03-01T04:38:02;13.87;;;7.27;;
5841;SDS011;2947;52.276;9.946;2023-03-01T04:40:28;15.30;;;7.50;;
5841;SDS011;2947;52.276;9.946;2023-03-01T04:42:54;16.27;;;8.33;;
5841;SDS011;2947;52.276;9.946;2023-03-01T04:45:20;13.37;;;6.90;;
5841;SDS011;2947;52.276;9.946;2023-03-01T04:47:46;16.80;;;8.50;;
5841;SDS011;2947;52.276;9.946;2023-03-01T04:50:13;13.13;;;7.40;;
5841;SDS011;2947;52.276;9.946;2023-03-01T04:52:42;13.20;;;8.13;;
5841;SDS011;2947;52.276;9.946;2023-03-01T04:55:08;12.27;;;6.40;;
5841;SDS011;2947;52.276;9.946;2023-03-01T04:57:35;18.00;;;8.17;;
5841;SDS011;2947;52.276;9.946;2023-03-01T05:00:01;17.40;;;7.10;;
5841;SDS011;2947;52.276;9.946;2023-03-01T05:02:44;16.30;;;8.30;;
5841;SDS011;2947;52.276;9.946;2023-03-01T05:05:19;17.20;;;7.97;;
5841;SDS011;2947;52.276;9.946;2023-03-01T05:07:54;19.53;;;7.90;;
5841;SDS011;2947;52.276;9.946;2023-03-01T05:10:22;15.47;;;7.63;;
5841;SDS011;2947;52.276;9.946;2023-03-01T05:12:49;15.93;;;9.23;;
5841;SDS011;2947;52.276;9.946;2023-03-01T05:15:14;13.20;;;8.47;;
5841;SDS011;2947;52.276;9.946;2023-03-01T05:17:40;19.80;;;9.33;;
5841;SDS011;2947;52.276;9.946;2023-03-01T05:20:07;16.67;;;8.67;;
5841;SDS011;2947;52.276;9.946;2023-03-01T05:22:33;21.93;;;9.80;;
5841;SDS011;2947;52.276;9.946;2023-03-01T05:25:03;16.57;;;8.20;;
5841;SDS011;2947;52.276;9.946;2023-03-01T05:27:29;17.53;;;8.37;;
5841;SDS011;2947;52.276;9.946;2023-03-01T05:29:56;17.03;;;9.90;;
5841;SDS011;2947;52.276;9.946;2023-03-01T05:32:21;18.63;;;9.60;;
5841;SDS011;2947;52.276;9.946;2023-03-01T05:34:47;17.63;;;8.40;;
5841;SDS011;2947;52.276;9.946;2023-03-01T05:37:13;17.57;;;9.67;;
5841;SDS011;2947;52.276;9.946;2023-03-01T05:39:39;15.07;;;8.50;;
5841;SDS011;2947;52.276;9.946;2023-03-01T05:42:04;16.70;;;8.90;;
5841;SDS011;2947;52.276;9.946;2023-03-01T05:44:30;19.27;;;9.60;;
5841;SDS011;2947;52.276;9.946;2023-03-01T05:46:56;16.13;;;9.80;;
5841;SDS011;2947;52.276;9.946;2023-03-01T05:49:22;16.00;;;8.70;;
5841;SDS011;2947;52.276;9.946;2023-03-01T05:51:51;16.13;;;9.07;;
5841;SDS011;2947;52.276;9.946;2023-03-01T05:54:18;16.03;;;8.80;;
5841;SDS011;2947;52.276;9.946;2023-03-01T05:56:46;19.43;;;8.97;;
5841;SDS011;2947;52.276;9.946;2023-03-01T05:59:12;15.30;;;8.37;;
5841;SDS011;2947;52.276;9.946;2023-03-01T06:01:38;16.10;;;8.43;;
5841;SDS011;2947;52.276;9.946;2023-03-01T06:04:04;19.30;;;9.43;;
5841;SDS011;2947;52.276;9.946;2023-03-01T06:06:34;16.80;;;8.13;;
5841;SDS011;2947;52.276;9.946;2023-03-01T06:09:04;17.73;;;7.93;;
5841;SDS011;2947;52.276;9.946;2023-03-01T06:11:34;15.47;;;8.07;;
5841;SDS011;2947;52.276;9.946;2023-03-01T06:14:01;13.27;;;7.90;;
5841;SDS011;2947;52.276;9.946;2023-03-01T06:16:27;14.80;;;8.03;;
5841;SDS011;2947;52.276;9.946;2023-03-01T06:18:53;19.80;;;8.33;;
5841;SDS011;2947;52.276;9.946;2023-03-01T06:21:19;19.57;;;8.77;;
5841;SDS011;2947;52.276;9.946;2023-03-01T06:23:44;19.23;;;9.10;;
5841;SDS011;2947;52.276;9.946;2023-03-01T06:26:10;16.00;;;8.13;;
5841;SDS011;2947;52.276;9.946;2023-03-01T06:28:35;17.40;;;8.70;;
5841;SDS011;2947;52.276;9.946;2023-03-01T06:31:01;22.87;;;10.17;;
5841;SDS011;2947;52.276;9.946;2023-03-01T06:33:27;17.30;;;9.70;;
5841;SDS011;2947;52.276;9.946;2023-03-01T06:35:56;19.47;;;10.07;;
5841;SDS011;2947;52.276;9.946;2023-03-01T06:38:22;19.80;;;9.60;;
5841;SDS011;2947;52.276;9.946;2023-03-01T06:40:52;15.60;;;8.73;;
5841;SDS011;2947;52.276;9.946;2023-03-01T06:43:20;15.90;;;8.80;;
5841;SDS011;2947;52.276;9.946;2023-03-01T06:45:46;16.50;;;8.53;;
5841;SDS011;2947;52.276;9.946;2023-03-01T06:48:11;15.13;;;8.67;;
5841;SDS011;2947;52.276;9.946;2023-03-01T06:50:37;24.33;;;11.03;;
5841;SDS011;2947;52.276;9.946;2023-03-01T06:53:03;20.10;;;9.60;;
5841;SDS011;2947;52.276;9.946;2023-03-01T06:55:29;16.70;;;10.03;;
5841;SDS011;2947;52.276;9.946;2023-03-01T06:57:56;25.00;;;11.30;;
5841;SDS011;2947;52.276;9.946;2023-03-01T07:00:23;21.57;;;10.20;;
5841;SDS011;2947;52.276;9.946;2023-03-01T07:02:50;25.60;;;11.97;;
5841;SDS011;2947;52.276;9.946;2023-03-01T07:05:16;20.23;;;10.20;;
5841;SDS011;2947;52.276;9.946;2023-03-01T07:07:42;22.07;;;10.60;;
5841;SDS011;2947;52.276;9.946;2023-03-01T07:10:08;15.47;;;9.33;;
5841;SDS011;2947;52.276;9.946;2023-03-01T07:12:35;23.03;;;11.73;;
5841;SDS011;2947;52.276;9.946;2023-03-01T07:15:00;24.23;;;11.20;;
5841;SDS011;2947;52.276;9.946;2023-03-01T07:17:26;22.03;;;10.97;;
5841;SDS011;2947;52.276;9.946;2023-03-01T07:19:52;20.23;;;11.00;;
5841;SDS011;2947;52.276;9.946;2023-03-01T07:22:17;22.93;;;11.13;;
5841;SDS011;2947;52.276;9.946;2023-03-01T07:24:43;23.03;;;10.43;;
5841;SDS011;2947;52.276;9.946;2023-03-01T07:27:09;17.47;;;9.83;;
5841;SDS011;2947;52.276;9.946;2023-03-01T07:29:35;18.00;;;9.97;;
5841;SDS011;2947;52.276;9.946;2023-03-01T07:32:04;21.20;;;11.60;;
5841;SDS011;2947;52.276;9.946;2023-03-01T07:34:30;19.93;;;11.30;;
5841;SDS011;2947;52.276;9.946;2023-03-01T07:36:57;25.10;;;11.30;;
5841;SDS011;2947;52.276;9.946;2023-03-01T07:39:23;20.93;;;10.87;;
5841;SDS011;2947;52.276;9.946;2023-03-01T07:41:49;22.73;;;10.37;;
5841;SDS011;2947;52.276;9.946;2023-03-01T07:44:15;20.60;;;10.83;;
5841;SDS011;2947;52.276;9.946;2023-03-01T07:46:42;17.07;;;9.17;;
5841;SDS011;2947;52.276;9.946;2023-03-01T07:49:08;18.13;;;10.30;;
5841;SDS011;2947;52.276;9.946;2023-03-01T07:51:34;17.60;;;9.67;;
5841;SDS011;2947;52.276;9.946;2023-03-01T07:54:00;18.40;;;9.70;;
5841;SDS011;2947;52.276;9.946;2023-03-01T07:56:25;21.63;;;8.97;;
5841;SDS011;2947;52.276;9.946;2023-03-01T07:58:51;23.60;;;9.30;;
5841;SDS011;2947;52.276;9.946;2023-03-01T08:01:18;16.33;;;8.63;;
5841;SDS011;2947;52.276;9.946;2023-03-01T08:03:45;17.20;;;9.50;;
5841;SDS011;2947;52.276;9.946;2023-03-01T08:06:11;17.37;;;8.60;;
5841;SDS011;2947;52.276;9.946;2023-03-01T08:08:39;17.90;;;9.83;;
5841;SDS011;2947;52.276;9.946;2023-03-01T08:11:06;17.80;;;8.57;;
5841;SDS011;2947;52.276;9.946;2023-03-01T08:13:34;15.27;;;8.07;;
5841;SDS011;2947;52.276;9.946;2023-03-01T08:16:00;18.10;;;10.20;;
5841;SDS011;2947;52.276;9.946;2023-03-01T08:18:27;14.83;;;8.60;;
5841;SDS011;2947;52.276;9.946;2023-03-01T08:20:53;14.63;;;8.43;;
5841;SDS011;2947;52.276;9.946;2023-03-01T08:23:19;16.93;;;8.87;;
5841;SDS011;2947;52.276;9.946;2023-03-01T08:25:45;16.57;;;7.40;;
5841;SDS011;2947;52.276;9.946;2023-03-01T08:28:10;14.73;;;8.07;;
5841;SDS011;2947;52.276;9.946;2023-03-01T08:30:36;20.87;;;8.00;;
5841;SDS011;2947;52.276;9.946;2023-03-01T08:33:01;15.33;;;8.03;;
5841;SDS011;2947;52.276;9.946;2023-03-01T08:35:27;15.50;;;7.30;;
5841;SDS011;2947;52.276;9.946;2023-03-01T08:37:53;18.60;;;7.87;;
5841;SDS011;2947;52.276;9.946;2023-03-01T08:40:18;16.43;;;8.00;;
5841;SDS011;2947;52.276;9.946;2023-03-01T08:42:44;12.60;;;7.57;;
5841;SDS011;2947;52.276;9.946;2023-03-01T08:45:11;13.00;;;7.33;;
5841;SDS011;2947;52.276;9.946;2023-03-01T08:47:37;17.37;;;6.70;;
5841;SDS011;2947;52.276;9.946;2023-03-01T08:50:03;13.30;;;7.70;;
5841;SDS011;2947;52.276;9.946;2023-03-01T08:52:30;16.70;;;8.00;;
5841;SDS011;2947;52.276;9.946;2023-03-01T08:54:57;16.00;;;7.53;;
5841;SDS011;2947;52.276;9.946;2023-03-01T08:57:23;17.30;;;7.90;;
5841;SDS011;2947;52.276;9.946;2023-03-01T08:59:49;15.00;;;8.10;;
5841;SDS011;2947;52.276;9.946;2023-03-01T09:02:16;16.90;;;8.20;;
5841;SDS011;2947;52.276;9.946;2023-03-01T09:04:43;14.77;;;8.17;;
5841;SDS011;2947;52.276;9.946;2023-03-01T09:07:09;15.33;;;7.30;;
5841;SDS011;2947;52.276;9.946;2023-03-01T09:09:35;11.63;;;7.00;;
5841;SDS011;2947;52.276;9.946;2023-03-01T09:12:03;13.90;;;6.80;;
5841;SDS011;2947;52.276;9.946;2023-03-01T09:14:29;14.83;;;7.10;;
5841;SDS011;2947;52.276;9.946;2023-03-01T09:16:55;15.13;;;6.90;;
5841;SDS011;2947;52.276;9.946;2023-03-01T09:19:21;18.00;;;7.33;;
5841;SDS011;2947;52.276;9.946;2023-03-01T09:21:47;12.80;;;5.70;;
5841;SDS011;2947;52.276;9.946;2023-03-01T09:24:19;11.10;;;7.13;;
5841;SDS011;2947;52.276;9.946;2023-03-01T09:26:47;14.00;;;6.30;;
5841;SDS011;2947;52.276;9.946;2023-03-01T09:29:14;19.60;;;4.87;;
5841;SDS011;2947;52.276;9.946;2023-03-01T09:31:41;10.43;;;5.83;;
5841;SDS011;2947;52.276;9.946;2023-03-01T09:34:08;11.33;;;5.00;;
5841;SDS011;2947;52.276;9.946;2023-03-01T09:36:34;9.43;;;4.83;;
5841;SDS011;2947;52.276;9.946;2023-03-01T09:39:00;11.33;;;5.70;;
5841;SDS011;2947;52.276;9.946;2023-03-01T09:47:03;9.93;;;4.60;;
5841;SDS011;2947;52.276;9.946;2023-03-01T09:49:33;9.37;;;4.73;;
5841;SDS011;2947;52.276;9.946;2023-03-01T09:52:11;13.03;;;6.10;;
5841;SDS011;2947;52.276;9.946;2023-03-01T09:54:49;9.10;;;4.87;;
5841;SDS011;2947;52.276;9.946;2023-03-01T10:00:23;11.90;;;5.20;;
5841;SDS011;2947;52.276;9.946;2023-03-01T10:03:14;12.07;;;6.20;;
5841;SDS011;2947;52.276;9.946;2023-03-01T10:05:54;12.13;;;6.20;;
5841;SDS011;2947;52.276;9.946;2023-03-01T10:11:04;12.07;;;5.63;;
5841;SDS011;2947;52.276;9.946;2023-03-01T10:13:54;10.47;;;5.17;;
5841;SDS011;2947;52.276;9.946;2023-03-01T10:19:09;15.23;;;5.10;;
5841;SDS011;2947;52.276;9.946;2023-03-01T10:21:43;9.70;;;4.33;;
5841;SDS011;2947;52.276;9.946;2023-03-01T10:24:14;9.00;;;3.43;;
5841;SDS011;2947;52.276;9.946;2023-03-01T10:26:57;13.20;;;5.00;;
5841;SDS011;2947;52.276;9.946;2023-03-01T10:29:50;12.17;;;4.23;;
5841;SDS011;2947;52.276;9.946;2023-03-01T10:32:37;8.23;;;4.63;;
5841;SDS011;2947;52.276;9.946;2023-03-01T10:35:16;10.53;;;4.93;;
5841;SDS011;2947;52.276;9.946;2023-03-01T10:38:11;12.10;;;4.90;;
5841;SDS011;2947;52.276;9.946;2023-03-01T10:43:25;9.90;;;4.63;;
5841;SDS011;2947;52.276;9.946;2023-03-01T10:45:54;13.53;;;4.90;;
5841;SDS011;2947;52.276;9.946;2023-03-01T10:48:21;11.27;;;5.73;;
5841;SDS011;2947;52.276;9.946;2023-03-01T10:53:24;9.00;;;4.20;;
5841;SDS011;2947;52.276;9.946;2023-03-01T10:58:30;9.10;;;4.47;;
5841;SDS011;2947;52.276;9.946;2023-03-01T11:00:58;11.43;;;4.27;;
5841;SDS011;2947;52.276;9.946;2023-03-01T11:08:37;12.80;;;4.57;;
5841;SDS011;2947;52.276;9.946;2023-03-01T11:11:05;9.83;;;4.70;;
5841;SDS011;2947;52.276;9.946;2023-03-01T11:13:50;8.47;;;4.13;;
5841;SDS011;2947;52.276;9.946;2023-03-01T11:16:35;15.67;;;4.80;;
5841;SDS011;2947;52.276;9.946;2023-03-01T11:21:36;10.90;;;4.43;;
5841;SDS011;2947;52.276;9.946;2023-03-01T11:24:12;7.17;;;3.70;;
5841;SDS011;2947;52.276;9.946;2023-03-01T11:26:43;14.10;;;3.63;;
5841;SDS011;2947;52.276;9.946;2023-03-01T11:32:12;10.70;;;4.87;;
5841;SDS011;2947;52.276;9.946;2023-03-01T11:34:51;9.37;;;4.03;;
5841;SDS011;2947;52.276;9.946;2023-03-01T11:37:28;13.77;;;4.37;;
5841;SDS011;2947;52.276;9.946;2023-03-01T11:40:05;7.87;;;4.10;;
5841;SDS011;2947;52.276;9.946;2023-03-01T11:42:54;9.70;;;4.60;;
5841;SDS011;2947;52.276;9.946;2023-03-01T11:45:32;6.77;;;3.87;;
5841;SDS011;2947;52.276;9.946;2023-03-01T11:48:31;11.23;;;3.00;;
5841;SDS011;2947;52.276;9.946;2023-03-01T11:51:32;7.33;;;4.60;;
5841;SDS011;2947;52.276;9.946;2023-03-01T11:57:20;10.50;;;3.70;;
5841;SDS011;2947;52.276;9.946;2023-03-01T12:03:16;6.80;;;3.83;;
5841;SDS011;2947;52.276;9.946;2023-03-01T12:08:50;9.40;;;4.30;;
5841;SDS011;2947;52.276;9.946;2023-03-01T12:11:36;6.93;;;3.30;;
5841;SDS011;2947;52.276;9.946;2023-03-01T12:20:14;7.83;;;5.07;;
5841;SDS011;2947;52.276;9.946;2023-03-01T12:31:08;9.33;;;4.20;;
5841;SDS011;2947;52.276;9.946;2023-03-01T12:36:45;5.60;;;3.07;;
5841;SDS011;2947;52.276;9.946;2023-03-01T12:45:16;5.77;;;3.07;;
5841;SDS011;2947;52.276;9.946;2023-03-01T12:51:19;6.73;;;3.67;;
5841;SDS011;2947;52.276;9.946;2023-03-01T12:53:50;7.30;;;3.90;;
5841;SDS011;2947;52.276;9.946;2023-03-01T12:56:22;10.07;;;3.60;;
5841;SDS011;2947;52.276;9.946;2023-03-01T13:01:45;7.00;;;3.40;;
5841;SDS011;2947;52.276;9.946;2023-03-01T13:04:31;7.70;;;4.30;;
5841;SDS011;2947;52.276;9.946;2023-03-01T13:20:27;7.23;;;3.80;;
5841;SDS011;2947;52.276;9.946;2023-03-01T13:23:03;7.57;;;3.80;;
5841;SDS011;2947;52.276;9.946;2023-03-01T13:33:51;8.30;;;4.23;;
5841;SDS011;2947;52.276;9.946;2023-03-01T13:38:56;8.03;;;3.87;;
5841;SDS011;2947;52.276;9.946;2023-03-01T13:44:20;7.90;;;3.70;;
5841;SDS011;2947;52.276;9.946;2023-03-01T13:46:58;6.73;;;3.57;;
5841;SDS011;2947;52.276;9.946;2023-03-01T13:49:34;7.20;;;3.63;;
5841;SDS011;2947;52.276;9.946;2023-03-01T13:55:14;10.00;;;3.30;;
5841;SDS011;2947;52.276;9.946;2023-03-01T13:57:49;5.40;;;3.00;;
5841;SDS011;2947;52.276;9.946;2023-03-01T14:03:13;5.07;;;2.60;;
5841;SDS011;2947;52.276;9.946;2023-03-01T14:05:57;6.60;;;3.07;;
5841;SDS011;2947;52.276;9.946;2023-03-01T14:08:33;6.23;;;3.27;;
5841;SDS011;2947;52.276;9.946;2023-03-01T14:14:25;8.40;;;2.73;;
5841;SDS011;2947;52.276;9.946;2023-03-01T14:17:30;6.83;;;3.10;;
5841;SDS011;2947;52.276;9.946;2023-03-01T14:19:58;4.93;;;2.60;;
5841;SDS011;2947;52.276;9.946;2023-03-01T14:22:33;5.37;;;2.33;;
5841;SDS011;2947;52.276;9.946;2023-03-01T14:25:01;6.03;;;3.30;;
5841;SDS011;2947;52.276;9.946;2023-03-01T14:27:38;5.63;;;2.53;;
5841;SDS011;2947;52.276;9.946;2023-03-01T14:30:11;5.23;;;3.17;;
5841;SDS011;2947;52.276;9.946;2023-03-01T14:32:51;4.67;;;2.60;;
5841;SDS011;2947;52.276;9.946;2023-03-01T14:35:24;3.93;;;1.90;;
5841;SDS011;2947;52.276;9.946;2023-03-01T14:37:56;5.27;;;2.47;;
5841;SDS011;2947;52.276;9.946;2023-03-01T14:40:24;5.90;;;3.00;;
5841;SDS011;2947;52.276;9.946;2023-03-01T14:43:01;5.17;;;2.77;;
5841;SDS011;2947;52.276;9.946;2023-03-01T14:45:42;6.73;;;2.93;;
5841;SDS011;2947;52.276;9.946;2023-03-01T14:48:14;6.90;;;3.07;;
5841;SDS011;2947;52.276;9.946;2023-03-01T14:50:41;4.93;;;2.67;;
5841;SDS011;2947;52.276;9.946;2023-03-01T14:53:17;6.87;;;3.23;;
5841;SDS011;2947;52.276;9.946;2023-03-01T14:55:54;6.13;;;2.43;;
5841;SDS011;2947;52.276;9.946;2023-03-01T14:58:24;4.50;;;2.53;;
5841;SDS011;2947;52.276;9.946;2023-03-01T15:00:58;5.63;;;2.77;;
5841;SDS011;2947;52.276;9.946;2023-03-01T15:03:30;5.17;;;2.47;;
5841;SDS011;2947;52.276;9.946;2023-03-01T15:06:03;5.30;;;2.10;;
5841;SDS011;2947;52.276;9.946;2023-03-01T15:08:31;4.73;;;2.20;;
5841;SDS011;2947;52.276;9.946;2023-03-01T15:13:49;6.50;;;2.63;;
5841;SDS011;2947;52.276;9.946;2023-03-01T15:16:17;4.60;;;2.77;;
5841;SDS011;2947;52.276;9.946;2023-03-01T15:19:00;5.60;;;2.33;;
5841;SDS011;2947;52.276;9.946;2023-03-01T15:21:36;7.57;;;3.13;;
5841;SDS011;2947;52.276;9.946;2023-03-01T15:26:50;4.80;;;2.70;;
5841;SDS011;2947;52.276;9.946;2023-03-01T15:29:21;6.70;;;3.00;;
5841;SDS011;2947;52.276;9.946;2023-03-01T15:31:58;6.80;;;3.07;;
5841;SDS011;2947;52.276;9.946;2023-03-01T15:34:32;5.80;;;3.10;;
5841;SDS011;2947;52.276;9.946;2023-03-01T15:37:02;7.07;;;2.90;;
5841;SDS011;2947;52.276;9.946;2023-03-01T15:39:40;9.73;;;3.20;;
5841;SDS011;2947;52.276;9.946;2023-03-01T15:42:09;6.47;;;3.10;;
5841;SDS011;2947;52.276;9.946;2023-03-01T15:44:40;5.93;;;3.00;;
5841;SDS011;2947;52.276;9.946;2023-03-01T15:50:11;5.77;;;3.03;;
5841;SDS011;2947;52.276;9.946;2023-03-01T15:52:53;9.73;;;3.50;;
5841;SDS011;2947;52.276;9.946;2023-03-01T15:57:48;16.80;;;5.67;;
5841;SDS011;2947;52.276;9.946;2023-03-01T16:00:15;9.20;;;3.70;;
5841;SDS011;2947;52.276;9.946;2023-03-01T16:02:42;9.30;;;4.40;;
5841;SDS011;2947;52.276;9.946;2023-03-01T16:05:22;10.70;;;4.73;;
5841;SDS011;2947;52.276;9.946;2023-03-01T16:07:52;4.13;;;2.63;;
5841;SDS011;2947;52.276;9.946;2023-03-01T16:10:19;6.70;;;3.40;;
5841;SDS011;2947;52.276;9.946;2023-03-01T16:12:44;7.70;;;3.87;;
5841;SDS011;2947;52.276;9.946;2023-03-01T16:15:16;7.47;;;3.57;;
5841;SDS011;2947;52.276;9.946;2023-03-01T16:17:52;5.27;;;3.03;;
5841;SDS011;2947;52.276;9.946;2023-03-01T16:20:18;9.63;;;3.20;;
5841;SDS011;2947;52.276;9.946;2023-03-01T16:22:44;10.30;;;3.67;;
5841;SDS011;2947;52.276;9.946;2023-03-01T16:25:11;8.17;;;3.70;;
5841;SDS011;2947;52.276;9.946;2023-03-01T16:27:44;11.27;;;4.13;;
5841;SDS011;2947;52.276;9.946;2023-03-01T16:30:12;7.33;;;3.73;;
5841;SDS011;2947;52.276;9.946;2023-03-01T16:32:40;6.13;;;3.90;;
5841;SDS011;2947;52.276;9.946;2023-03-01T16:35:08;8.20;;;3.60;;
5841;SDS011;2947;52.276;9.946;2023-03-01T16:37:36;8.73;;;3.77;;
5841;SDS011;2947;52.276;9.946;2023-03-01T16:40:03;9.47;;;4.27;;
5841;SDS011;2947;52.276;9.946;2023-03-01T16:42:34;7.20;;;3.97;;
5841;SDS011;2947;52.276;9.946;2023-03-01T16:45:00;10.60;;;5.67;;
5841;SDS011;2947;52.276;9.946;2023-03-01T16:47:26;9.93;;;4.60;;
5841;SDS011;2947;52.276;9.946;2023-03-01T16:49:53;8.73;;;4.70;;
5841;SDS011;2947;52.276;9.946;2023-03-01T16:52:19;13.70;;;8.00;;
5841;SDS011;2947;52.276;9.946;2023-03-01T16:54:46;27.17;;;15.50;;
5841;SDS011;2947;52.276;9.946;2023-03-01T16:57:12;10.87;;;3.87;;
5841;SDS011;2947;52.276;9.946;2023-03-01T16:59:38;16.40;;;6.20;;
5841;SDS011;2947;52.276;9.946;2023-03-01T17:02:04;8.60;;;5.20;;
5841;SDS011;2947;52.276;9.946;2023-03-01T17:04:34;13.00;;;6.17;;
5841;SDS011;2947;52.276;9.946;2023-03-01T17:07:00;43.30;;;14.70;;
5841;SDS011;2947;52.276;9.946;2023-03-01T17:09:26;31.77;;;11.00;;
5841;SDS011;2947;52.276;9.946;2023-03-01T17:11:51;70.67;;;23.60;;
5841;SDS011;2947;52.276;9.946;2023-03-01T17:14:17;34.73;;;13.17;;
5841;SDS011;2947;52.276;9.946;2023-03-01T17:16:43;18.57;;;8.77;;
5841;SDS011;2947;52.276;9.946;2023-03-01T17:19:09;21.17;;;12.20;;
5841;SDS011;2947;52.276;9.946;2023-03-01T17:21:35;22.50;;;12.30;;
5841;SDS011;2947;52.276;9.946;2023-03-01T17:24:02;19.90;;;8.43;;
5841;SDS011;2947;52.276;9.946;2023-03-01T17:26:28;18.43;;;8.03;;
5841;SDS011;2947;52.276;9.946;2023-03-01T17:28:54;27.17;;;14.73;;
5841;SDS011;2947;52.276;9.946;2023-03-01T17:31:21;27.77;;;12.97;;
5841;SDS011;2947;52.276;9.946;2023-03-01T17:33:48;22.70;;;11.43;;
5841;SDS011;2947;52.276;9.946;2023-03-01T17:36:14;19.87;;;8.63;;